CheckWX is a tool to help pilots better visualize weather data.  It is not intended as a substitute for an official pre-flight weather briefing.

09:45:56 UTC

CYND METAR
Ottawa / Gatineau Airport
Ottawa, Canada
Current

8 hours ago

CYND 200200Z 00000KT 15SM SKC M19/M23 A3055 RMK LAST STFD OBS/NEXT 201200 UTC SLP353
Observed
Feb-20 @ 02:00 UTC
Visibility
24,140 meters
Flight Rules
VFR
Cloud Levels
  • Clear skies
Temperature
-19°C / -2°F
Dewpoint
-23°C / -9°F
Humidity
71%
Altimeter
30.55" Hg
Pressure
1035.3 hPa
Previous

9 hours ago

CYND 200100Z VRB02KT 15SM SKC M17/M21 A3054 RMK SLP352
Observed
Feb-20 @ 01:00 UTC
Wind
  • Variable at 2 KTS
Visibility
24,140 meters
Flight Rules
VFR
Cloud Levels
  • Clear skies
Temperature
-17°C / 1°F
Dewpoint
-21°C / -6°F
Humidity
71%
Altimeter
30.54" Hg
Pressure
1035.2 hPa
Previous

10 hours ago

CYND 200000Z 00000KT 15SM FEW220 M16/M21 A3055 RMK CI1 SLP354
Observed
Feb-20 @ 00:00 UTC
Visibility
24,140 meters
Flight Rules
VFR
Cloud Levels
  • Few at 22,000' AGL
Temperature
-16°C / 3°F
Dewpoint
-21°C / -6°F
Humidity
66%
Altimeter
30.55" Hg
Pressure
1035.4 hPa